This is the latest recevied weather packets stored in our database for station/object K8BCO. If no packets are shown the sender has not sent any weather packets the latest 1 day(s).
| Time | Temp. | Humidity | Pressure | Rain* | Wind** | Luminosity | Snow |
|---|---|---|---|---|---|---|---|
| 1778006117 | 6.11° C | 59% | 1006.2 hPa | 0 mm | 1.79 m/s, 22° | 899 W/m² | - |
| 1778005517 | 5.56° C | 60% | 1006.3 hPa | 0 mm | 2.24 m/s, 339° | 421 W/m² | - |
| 1778004917 | 6.11° C | 60% | 1006.2 hPa | 0 mm | 1.79 m/s, 333° | 526 W/m² | - |
| 1778004317 | 5° C | 63% | 1006 hPa | 0 mm | 1.79 m/s, 354° | 726 W/m² | - |
| 1778003718 | 4.44° C | 65% | 1006.1 hPa | 0 mm | 1.79 m/s, 335° | 263 W/m² | - |
| 1778003118 | 4.44° C | 65% | 1006 hPa | 0 mm | 1.79 m/s, 16° | 185 W/m² | - |
| 1778002518 | 5° C | 64% | 1005.9 hPa | 0 mm | 1.79 m/s, 335° | 153 W/m² | - |
| 1778001918 | 5.56° C | 62% | 1005.7 hPa | 0 mm | 1.79 m/s, 324° | 167 W/m² | - |
| 1778001315 | 6.67° C | 59% | 1005.4 hPa | 0 mm | 1.79 m/s, 292° | 304 W/m² | - |
| 1778000715 | 6.11° C | 59% | 1005.2 hPa | 0 mm | 1.79 m/s, 302° | 700 W/m² | - |
| 1778000119 | 6.11° C | 62% | 1005.3 hPa | 0 mm | 1.79 m/s, 15° | 526 W/m² | - |
| 1777999516 | 6.11° C | 61% | 1005.2 hPa | 0 mm | 2.24 m/s, 332° | 341 W/m² | - |
| 1777998916 | 6.67° C | 59% | 1005 hPa | 0 mm | 2.24 m/s, 326° | 687 W/m² | - |
| 1777998325 | 6.11° C | 63% | 1004.9 hPa | 0 mm | 1.79 m/s, 259° | 794 W/m² | - |
| 1777997716 | 5.56° C | 63% | 1005.1 hPa | 0 mm | 2.24 m/s, 283° | 343 W/m² | - |
| 1777997117 | 5.56° C | 65% | 1005 hPa | 0 mm | 2.24 m/s, 359° | 334 W/m² | - |
| 1777996517 | 6.11° C | 66% | 1004.9 hPa | 0 mm | 2.68 m/s, 321° | 565 W/m² | - |
| 1777995917 | 5.56° C | 71% | 1005 hPa | 0 mm | 1.34 m/s, 234° | 495 W/m² | - |
| 1777995316 | 5° C | 71% | 1004.8 hPa | 0 mm | 2.24 m/s, 327° | 659 W/m² | - |
| 1777994717 | 5.56° C | 72% | 1005 hPa | 0 mm | 1.79 m/s, 346° | 348 W/m² | - |
| 1777994117 | 6.11° C | 66% | 1004.5 hPa | 0 mm | 1.79 m/s, 293° | 670 W/m² | - |
| 1777993517 | 6.11° C | 67% | 1004.5 hPa | 0 mm | 1.79 m/s, 272° | 235 W/m² | - |
| 1777992918 | 6.11° C | 67% | 1004.3 hPa | 0 mm | 2.24 m/s, 323° | 693 W/m² | - |
| 1777992318 | 5.56° C | 71% | 1004.2 hPa | 0 mm | 1.79 m/s, 316° | 689 W/m² | - |
| 1777991718 | 5° C | 73% | 1004.2 hPa | 0 mm | 1.79 m/s, 330° | 498 W/m² | - |
* Rain latest hour (hover to see other rain measurements)
** Current wind speed in m/s (hover to see current wind gust speed)